sensor_id;sensor_type;location;lat;lon;timestamp;pressure;altitude;pressure_sealevel;temperature;humidity
7524;BME280;3803;51.666;7.630;2024-03-22T00:00:06;101557.34;;;13.89;52.60
7524;BME280;3803;51.666;7.630;2024-03-22T00:00:32;101556.50;;;13.90;52.86
7524;BME280;3803;51.666;7.630;2024-03-22T00:00:53;101560.06;;;13.92;52.70
7524;BME280;3803;51.666;7.630;2024-03-22T00:01:14;101552.03;;;13.86;52.44
7524;BME280;3803;51.666;7.630;2024-03-22T00:01:34;101550.31;;;13.87;52.62
7524;BME280;3803;51.666;7.630;2024-03-22T00:01:55;101552.28;;;13.95;52.39
7524;BME280;3803;51.666;7.630;2024-03-22T00:02:16;101556.47;;;13.89;52.65
7524;BME280;3803;51.666;7.630;2024-03-22T00:02:38;101551.25;;;13.90;52.88
7524;BME280;3803;51.666;7.630;2024-03-22T00:02:58;101556.53;;;13.92;52.57
7524;BME280;3803;51.666;7.630;2024-03-22T00:03:19;101553.88;;;13.90;52.65
7524;BME280;3803;51.666;7.630;2024-03-22T00:03:40;101549.47;;;13.88;52.81
7524;BME280;3803;51.666;7.630;2024-03-22T00:04:00;101544.22;;;13.89;52.93
7524;BME280;3803;51.666;7.630;2024-03-22T00:04:21;101546.84;;;13.89;52.72
7524;BME280;3803;51.666;7.630;2024-03-22T00:04:42;101546.00;;;13.90;52.64
7524;BME280;3803;51.666;7.630;2024-03-22T00:05:03;101562.75;;;13.95;52.75
7524;BME280;3803;51.666;7.630;2024-03-22T00:05:24;101545.09;;;13.88;52.77
7524;BME280;3803;51.666;7.630;2024-03-22T00:05:44;101548.50;;;13.84;52.85
7524;BME280;3803;51.666;7.630;2024-03-22T00:06:05;101547.72;;;13.88;52.99
7524;BME280;3803;51.666;7.630;2024-03-22T00:06:25;101550.50;;;13.94;52.72
7524;BME280;3803;51.666;7.630;2024-03-22T00:06:47;101548.72;;;13.93;52.67
7524;BME280;3803;51.666;7.630;2024-03-22T00:07:08;101543.38;;;13.90;52.89
7524;BME280;3803;51.666;7.630;2024-03-22T00:07:29;101546.97;;;13.92;52.67
7524;BME280;3803;51.666;7.630;2024-03-22T00:07:50;101553.97;;;13.93;52.71
7524;BME280;3803;51.666;7.630;2024-03-22T00:08:10;101548.72;;;13.93;52.58
7524;BME280;3803;51.666;7.630;2024-03-22T00:08:31;101551.41;;;13.96;52.67
7524;BME280;3803;51.666;7.630;2024-03-22T00:08:52;101538.19;;;13.92;52.70
7524;BME280;3803;51.666;7.630;2024-03-22T00:09:12;101555.75;;;13.94;52.67
7524;BME280;3803;51.666;7.630;2024-03-22T00:09:33;101541.66;;;13.91;52.78
7524;BME280;3803;51.666;7.630;2024-03-22T00:09:54;101544.34;;;13.92;52.70
7524;BME280;3803;51.666;7.630;2024-03-22T00:10:14;101544.34;;;13.92;52.47
7524;BME280;3803;51.666;7.630;2024-03-22T00:10:35;101552.94;;;13.88;52.75
7524;BME280;3803;51.666;7.630;2024-03-22T00:10:55;101540.81;;;13.92;52.58
7524;BME280;3803;51.666;7.630;2024-03-22T00:11:16;101553.19;;;13.96;52.64
7524;BME280;3803;51.666;7.630;2024-03-22T00:11:39;101555.75;;;13.94;52.98
7524;BME280;3803;51.666;7.630;2024-03-22T00:12:00;101549.59;;;13.94;53.01
7524;BME280;3803;51.666;7.630;2024-03-22T00:12:21;101548.78;;;13.96;52.78
7524;BME280;3803;51.666;7.630;2024-03-22T00:12:41;101547.03;;;13.95;52.68
7524;BME280;3803;51.666;7.630;2024-03-22T00:13:02;101544.34;;;13.92;52.93
7524;BME280;3803;51.666;7.630;2024-03-22T00:13:23;101548.72;;;13.93;52.60
7524;BME280;3803;51.666;7.630;2024-03-22T00:13:43;101538.41;;;14.00;52.63
7524;BME280;3803;51.666;7.630;2024-03-22T00:14:04;101544.50;;;14.00;52.68
7524;BME280;3803;51.666;7.630;2024-03-22T00:14:25;101546.28;;;14.00;52.79
7524;BME280;3803;51.666;7.630;2024-03-22T00:14:45;101546.22;;;13.98;52.67
7524;BME280;3803;51.666;7.630;2024-03-22T00:15:07;101542.69;;;13.97;52.79
7524;BME280;3803;51.666;7.630;2024-03-22T00:15:27;101534.81;;;13.97;52.75
7524;BME280;3803;51.666;7.630;2024-03-22T00:15:48;101536.63;;;13.98;52.61
7524;BME280;3803;51.666;7.630;2024-03-22T00:16:08;101538.31;;;13.96;52.89
7524;BME280;3803;51.666;7.630;2024-03-22T00:16:29;101542.75;;;13.99;52.72
7524;BME280;3803;51.666;7.630;2024-03-22T00:16:50;101541.88;;;13.98;52.66
7524;BME280;3803;51.666;7.630;2024-03-22T00:17:10;101542.75;;;13.99;52.76
7524;BME280;3803;51.666;7.630;2024-03-22T00:17:31;101533.91;;;13.95;52.59
7524;BME280;3803;51.666;7.630;2024-03-22T00:17:52;101535.59;;;13.93;52.95
7524;BME280;3803;51.666;7.630;2024-03-22T00:18:12;101531.22;;;13.94;52.97
7524;BME280;3803;51.666;7.630;2024-03-22T00:18:33;101535.66;;;13.95;52.98
7524;BME280;3803;51.666;7.630;2024-03-22T00:18:54;101538.22;;;13.93;52.67
7524;BME280;3803;51.666;7.630;2024-03-22T00:19:14;101533.72;;;13.89;52.86
7524;BME280;3803;51.666;7.630;2024-03-22T00:19:35;101525.78;;;13.86;52.93
7524;BME280;3803;51.666;7.630;2024-03-22T00:19:56;101529.16;;;13.82;52.92
7524;BME280;3803;51.666;7.630;2024-03-22T00:20:16;101532.75;;;13.84;53.37
7524;BME280;3803;51.666;7.630;2024-03-22T00:20:37;101530.00;;;13.79;53.23
7524;BME280;3803;51.666;7.630;2024-03-22T00:20:58;101530.88;;;13.80;53.23
7524;BME280;3803;51.666;7.630;2024-03-22T00:21:18;101537.03;;;13.82;53.04
7524;BME280;3803;51.666;7.630;2024-03-22T00:21:39;101524.66;;;13.76;53.32
7524;BME280;3803;51.666;7.630;2024-03-22T00:22:00;101526.53;;;13.80;53.21
7524;BME280;3803;51.666;7.630;2024-03-22T00:22:20;101528.38;;;13.84;53.27
7524;BME280;3803;51.666;7.630;2024-03-22T00:22:41;101530.97;;;13.83;53.26
7524;BME280;3803;51.666;7.630;2024-03-22T00:23:01;101535.44;;;13.87;53.31
7524;BME280;3803;51.666;7.630;2024-03-22T00:23:22;101528.41;;;13.86;53.19
7524;BME280;3803;51.666;7.630;2024-03-22T00:23:44;101523.06;;;13.81;53.21
7524;BME280;3803;51.666;7.630;2024-03-22T00:24:05;101527.56;;;13.87;53.35
7524;BME280;3803;51.666;7.630;2024-03-22T00:24:25;101528.50;;;13.89;52.95
7524;BME280;3803;51.666;7.630;2024-03-22T00:24:46;101516.09;;;13.83;53.04
7524;BME280;3803;51.666;7.630;2024-03-22T00:25:07;101526.66;;;13.85;53.13
7524;BME280;3803;51.666;7.630;2024-03-22T00:25:28;101537.22;;;13.88;53.10
7524;BME280;3803;51.666;7.630;2024-03-22T00:25:48;101534.41;;;13.82;53.29
7524;BME280;3803;51.666;7.630;2024-03-22T00:26:09;101517.94;;;13.86;53.14
7524;BME280;3803;51.666;7.630;2024-03-22T00:26:30;101525.88;;;13.89;53.21
7524;BME280;3803;51.666;7.630;2024-03-22T00:26:50;101522.31;;;13.87;53.11
7524;BME280;3803;51.666;7.630;2024-03-22T00:27:11;101528.53;;;13.91;53.02
7524;BME280;3803;51.666;7.630;2024-03-22T00:27:32;101525.97;;;13.92;53.02
7524;BME280;3803;51.666;7.630;2024-03-22T00:27:54;101533.84;;;13.94;53.12
7524;BME280;3803;51.666;7.630;2024-03-22T00:28:15;101527.56;;;13.87;53.09
7524;BME280;3803;51.666;7.630;2024-03-22T00:28:36;101527.50;;;13.85;53.31
7524;BME280;3803;51.666;7.630;2024-03-22T00:28:56;101537.25;;;13.90;53.23
7524;BME280;3803;51.666;7.630;2024-03-22T00:29:20;101531.91;;;13.85;53.29
7524;BME280;3803;51.666;7.630;2024-03-22T00:29:40;101530.13;;;13.84;53.53
7524;BME280;3803;51.666;7.630;2024-03-22T00:30:01;101534.53;;;13.85;53.32
7524;BME280;3803;51.666;7.630;2024-03-22T00:30:22;101532.00;;;13.90;53.60
7524;BME280;3803;51.666;7.630;2024-03-22T00:30:42;101532.88;;;13.90;53.16
7524;BME280;3803;51.666;7.630;2024-03-22T00:31:03;101535.69;;;13.96;53.37
7524;BME280;3803;51.666;7.630;2024-03-22T00:31:24;101529.56;;;13.97;53.19
7524;BME280;3803;51.666;7.630;2024-03-22T00:31:44;101534.91;;;14.01;53.17
7524;BME280;3803;51.666;7.630;2024-03-22T00:32:05;101534.13;;;14.03;53.03
7524;BME280;3803;51.666;7.630;2024-03-22T00:32:27;101528.03;;;14.04;52.99
7524;BME280;3803;51.666;7.630;2024-03-22T00:32:48;101528.03;;;14.04;53.23
7524;BME280;3803;51.666;7.630;2024-03-22T00:33:09;101527.22;;;14.07;53.26
7524;BME280;3803;51.666;7.630;2024-03-22T00:33:29;101529.13;;;14.13;53.14
7524;BME280;3803;51.666;7.630;2024-03-22T00:33:50;101525.81;;;14.20;53.04
7524;BME280;3803;51.666;7.630;2024-03-22T00:34:11;101538.09;;;14.21;52.78
7524;BME280;3803;51.666;7.630;2024-03-22T00:34:31;101523.22;;;14.21;53.15
7524;BME280;3803;51.666;7.630;2024-03-22T00:34:52;101527.53;;;14.19;53.05
7524;BME280;3803;51.666;7.630;2024-03-22T00:35:13;101514.25;;;14.13;53.07
7524;BME280;3803;51.666;7.630;2024-03-22T00:35:34;101517.03;;;14.19;53.01
7524;BME280;3803;51.666;7.630;2024-03-22T00:35:54;101526.69;;;14.20;53.03
7524;BME280;3803;51.666;7.630;2024-03-22T00:36:15;101520.53;;;14.18;52.97
7524;BME280;3803;51.666;7.630;2024-03-22T00:36:35;101517.91;;;14.18;52.91
7524;BME280;3803;51.666;7.630;2024-03-22T00:36:56;101525.88;;;14.23;52.87
7524;BME280;3803;51.666;7.630;2024-03-22T00:37:17;101514.50;;;14.22;52.71
7524;BME280;3803;51.666;7.630;2024-03-22T00:37:37;101507.47;;;14.21;52.82
7524;BME280;3803;51.666;7.630;2024-03-22T00:37:58;101528.72;;;14.31;52.88
7524;BME280;3803;51.666;7.630;2024-03-22T00:38:18;101524.22;;;14.27;52.79
7524;BME280;3803;51.666;7.630;2024-03-22T00:38:39;101511.84;;;14.21;52.70
7524;BME280;3803;51.666;7.630;2024-03-22T00:39:00;101518.97;;;14.27;53.05
7524;BME280;3803;51.666;7.630;2024-03-22T00:39:20;101519.81;;;14.25;52.72
7524;BME280;3803;51.666;7.630;2024-03-22T00:39:41;101523.25;;;14.23;52.89
7524;BME280;3803;51.666;7.630;2024-03-22T00:40:01;101514.50;;;14.22;52.70
7524;BME280;3803;51.666;7.630;2024-03-22T00:40:23;101512.72;;;14.21;52.87
7524;BME280;3803;51.666;7.630;2024-03-22T00:40:44;101514.53;;;14.24;52.77
7524;BME280;3803;51.666;7.630;2024-03-22T00:41:05;101510.13;;;14.23;52.86
7524;BME280;3803;51.666;7.630;2024-03-22T00:41:26;101519.88;;;14.29;52.92
7524;BME280;3803;51.666;7.630;2024-03-22T00:41:47;101507.59;;;14.26;52.88
7524;BME280;3803;51.666;7.630;2024-03-22T00:42:08;101508.34;;;14.22;53.04
7524;BME280;3803;51.666;7.630;2024-03-22T00:42:28;101510.19;;;14.24;52.99
7524;BME280;3803;51.666;7.630;2024-03-22T00:42:49;101511.03;;;14.23;52.80
7524;BME280;3803;51.666;7.630;2024-03-22T00:43:10;101497.81;;;14.20;52.98
7524;BME280;3803;51.666;7.630;2024-03-22T00:43:30;101493.38;;;14.18;52.75
7524;BME280;3803;51.666;7.630;2024-03-22T00:43:51;101499.59;;;14.21;52.88
7524;BME280;3803;51.666;7.630;2024-03-22T00:44:11;101500.59;;;14.27;52.75
7524;BME280;3803;51.666;7.630;2024-03-22T00:44:32;101489.09;;;14.21;52.85
7524;BME280;3803;51.666;7.630;2024-03-22T00:44:53;101505.00;;;14.28;52.91
7524;BME280;3803;51.666;7.630;2024-03-22T00:45:15;101500.41;;;14.19;52.88
7524;BME280;3803;51.666;7.630;2024-03-22T00:45:35;101496.00;;;14.18;52.62
7524;BME280;3803;51.666;7.630;2024-03-22T00:45:56;101495.13;;;14.17;52.74
7524;BME280;3803;51.666;7.630;2024-03-22T00:46:17;101485.44;;;14.15;52.72
7524;BME280;3803;51.666;7.630;2024-03-22T00:46:37;101496.03;;;14.19;52.98
7524;BME280;3803;51.666;7.630;2024-03-22T00:46:58;101491.66;;;14.18;52.63
7524;BME280;3803;51.666;7.630;2024-03-22T00:47:19;101480.94;;;14.10;52.88
7524;BME280;3803;51.666;7.630;2024-03-22T00:47:40;101496.84;;;14.15;53.06
7524;BME280;3803;51.666;7.630;2024-03-22T00:48:00;101481.88;;;14.13;52.91
7524;BME280;3803;51.666;7.630;2024-03-22T00:48:21;101483.59;;;14.12;53.13
7524;BME280;3803;51.666;7.630;2024-03-22T00:48:42;101491.69;;;14.20;53.04
7524;BME280;3803;51.666;7.630;2024-03-22T00:49:03;101489.09;;;14.21;53.35
7524;BME280;3803;51.666;7.630;2024-03-22T00:49:23;101491.72;;;14.21;52.89
7524;BME280;3803;51.666;7.630;2024-03-22T00:49:44;101499.72;;;14.26;52.78
7524;BME280;3803;51.666;7.630;2024-03-22T00:50:05;101485.63;;;14.22;53.03
7524;BME280;3803;51.666;7.630;2024-03-22T00:50:26;101490.91;;;14.24;52.91
7524;BME280;3803;51.666;7.630;2024-03-22T00:50:47;101487.31;;;14.20;52.82
7524;BME280;3803;51.666;7.630;2024-03-22T00:52:44;101486.56;;;14.24;53.15
7524;BME280;3803;51.666;7.630;2024-03-22T00:53:04;101482.16;;;14.23;52.93
7524;BME280;3803;51.666;7.630;2024-03-22T00:53:26;101487.31;;;14.20;53.06
7524;BME280;3803;51.666;7.630;2024-03-22T00:53:47;101489.34;;;14.31;52.68
7524;BME280;3803;51.666;7.630;2024-03-22T00:54:08;101479.97;;;14.42;52.54
7524;BME280;3803;51.666;7.630;2024-03-22T00:54:28;101478.78;;;14.29;52.99
7524;BME280;3803;51.666;7.630;2024-03-22T00:54:49;101476.91;;;14.25;52.85
7524;BME280;3803;51.666;7.630;2024-03-22T00:55:10;101476.91;;;14.25;52.94
7524;BME280;3803;51.666;7.630;2024-03-22T00:55:31;101476.91;;;14.25;52.64
7524;BME280;3803;51.666;7.630;2024-03-22T00:55:51;101483.13;;;14.29;53.01
7524;BME280;3803;51.666;7.630;2024-03-22T00:56:12;101481.34;;;14.28;52.88
7524;BME280;3803;51.666;7.630;2024-03-22T00:56:32;101468.22;;;14.26;52.88
7524;BME280;3803;51.666;7.630;2024-03-22T00:56:53;101466.47;;;14.27;52.86
7524;BME280;3803;51.666;7.630;2024-03-22T00:57:13;101469.03;;;14.23;52.69
7524;BME280;3803;51.666;7.630;2024-03-22T00:57:34;101475.31;;;14.30;53.09
7524;BME280;3803;51.666;7.630;2024-03-22T00:57:55;101469.03;;;14.23;52.93
7524;BME280;3803;51.666;7.630;2024-03-22T00:58:15;101461.06;;;14.20;52.84
7524;BME280;3803;51.666;7.630;2024-03-22T00:58:36;101476.13;;;14.28;53.04
7524;BME280;3803;51.666;7.630;2024-03-22T00:58:56;101472.56;;;14.25;52.81
7524;BME280;3803;51.666;7.630;2024-03-22T00:59:17;101476.06;;;14.24;53.15
7524;BME280;3803;51.666;7.630;2024-03-22T00:59:38;101472.53;;;14.24;53.16
7524;BME280;3803;51.666;7.630;2024-03-22T00:59:59;101467.31;;;14.25;53.08
7524;BME280;3803;51.666;7.630;2024-03-22T01:00:19;101477.16;;;14.34;53.01
7524;BME280;3803;51.666;7.630;2024-03-22T01:00:40;101464.81;;;14.30;52.97
7524;BME280;3803;51.666;7.630;2024-03-22T01:01:00;101477.97;;;14.32;52.91
7524;BME280;3803;51.666;7.630;2024-03-22T01:01:21;101474.38;;;14.28;52.81
7524;BME280;3803;51.666;7.630;2024-03-22T01:01:42;101452.38;;;14.23;52.91
7524;BME280;3803;51.666;7.630;2024-03-22T01:02:03;101467.38;;;14.29;52.96
7524;BME280;3803;51.666;7.630;2024-03-22T01:02:24;101468.28;;;14.29;52.95
7524;BME280;3803;51.666;7.630;2024-03-22T01:02:44;101472.78;;;14.35;52.81
7524;BME280;3803;51.666;7.630;2024-03-22T01:03:05;101476.19;;;14.31;52.81
7524;BME280;3803;51.666;7.630;2024-03-22T01:03:26;101468.28;;;14.29;53.08
7524;BME280;3803;51.666;7.630;2024-03-22T01:03:46;101474.50;;;14.33;53.12
7524;BME280;3803;51.666;7.630;2024-03-22T01:04:07;101471.88;;;14.33;52.94
7524;BME280;3803;51.666;7.630;2024-03-22T01:04:29;101472.78;;;14.35;52.87
7524;BME280;3803;51.666;7.630;2024-03-22T01:04:50;101456.88;;;14.29;52.85
7524;BME280;3803;51.666;7.630;2024-03-22T01:05:10;101465.75;;;14.34;52.79
7524;BME280;3803;51.666;7.630;2024-03-22T01:05:31;101457.81;;;14.31;52.64
7524;BME280;3803;51.666;7.630;2024-03-22T01:05:52;101460.44;;;14.31;52.90
7524;BME280;3803;51.666;7.630;2024-03-22T01:06:12;101469.31;;;14.36;52.92
7524;BME280;3803;51.666;7.630;2024-03-22T01:06:33;101464.84;;;14.33;53.12
7524;BME280;3803;51.666;7.630;2024-03-22T01:06:54;101472.03;;;14.41;52.59
7524;BME280;3803;51.666;7.630;2024-03-22T01:07:14;101453.50;;;14.33;52.70
7524;BME280;3803;51.666;7.630;2024-03-22T01:07:36;101446.47;;;14.32;52.70
7524;BME280;3803;51.666;7.630;2024-03-22T01:07:57;101455.47;;;14.43;52.76
7524;BME280;3803;51.666;7.630;2024-03-22T01:08:17;101466.06;;;14.46;52.73
7524;BME280;3803;51.666;7.630;2024-03-22T01:08:38;101453.69;;;14.42;52.50
7524;BME280;3803;51.666;7.630;2024-03-22T01:08:59;101452.78;;;14.40;52.57
7524;BME280;3803;51.666;7.630;2024-03-22T01:09:19;101457.13;;;14.38;52.72
7524;BME280;3803;51.666;7.630;2024-03-22T01:09:40;101449.31;;;14.41;52.66
7524;BME280;3803;51.666;7.630;2024-03-22T01:10:02;101450.16;;;14.40;52.64
7524;BME280;3803;51.666;7.630;2024-03-22T01:10:23;101448.38;;;14.39;52.81
7524;BME280;3803;51.666;7.630;2024-03-22T01:10:44;101457.25;;;14.44;52.64
7524;BME280;3803;51.666;7.630;2024-03-22T01:11:04;101459.84;;;14.43;52.75
7524;BME280;3803;51.666;7.630;2024-03-22T01:11:25;101465.97;;;14.43;52.92
7524;BME280;3803;51.666;7.630;2024-03-22T01:11:46;101451.03;;;14.41;52.83
7524;BME280;3803;51.666;7.630;2024-03-22T01:12:06;101452.84;;;14.43;52.62
7524;BME280;3803;51.666;7.630;2024-03-22T01:12:27;101451.94;;;14.41;52.70
7524;BME280;3803;51.666;7.630;2024-03-22T01:12:47;101456.31;;;14.42;52.69
7524;BME280;3803;51.666;7.630;2024-03-22T01:13:08;101447.47;;;14.38;52.67
7524;BME280;3803;51.666;7.630;2024-03-22T01:13:29;101448.38;;;14.39;52.85
7524;BME280;3803;51.666;7.630;2024-03-22T01:13:49;101452.84;;;14.43;52.67
7524;BME280;3803;51.666;7.630;2024-03-22T01:14:10;101445.88;;;14.45;52.47
7524;BME280;3803;51.666;7.630;2024-03-22T01:14:30;101454.63;;;14.44;52.87
7524;BME280;3803;51.666;7.630;2024-03-22T01:14:51;101457.19;;;14.41;52.84
7524;BME280;3803;51.666;7.630;2024-03-22T01:15:12;101459.84;;;14.43;52.70
7524;BME280;3803;51.666;7.630;2024-03-22T01:15:32;101458.19;;;14.48;52.53
7524;BME280;3803;51.666;7.630;2024-03-22T01:15:53;101448.44;;;14.42;52.59
7524;BME280;3803;51.666;7.630;2024-03-22T01:16:14;101454.63;;;14.44;52.72
7524;BME280;3803;51.666;7.630;2024-03-22T01:16:34;101448.50;;;14.45;52.57
7524;BME280;3803;51.666;7.630;2024-03-22T01:16:55;101452.84;;;14.43;52.43
7524;BME280;3803;51.666;7.630;2024-03-22T01:17:16;101451.94;;;14.41;52.82
7524;BME280;3803;51.666;7.630;2024-03-22T01:17:36;101451.94;;;14.41;52.72
7524;BME280;3803;51.666;7.630;2024-03-22T01:17:57;101459.91;;;14.46;52.82
7524;BME280;3803;51.666;7.630;2024-03-22T01:18:18;101462.47;;;14.43;52.71
7524;BME280;3803;51.666;7.630;2024-03-22T01:18:38;101459.00;;;14.45;52.70
7524;BME280;3803;51.666;7.630;2024-03-22T01:18:59;101452.84;;;14.43;52.54
7524;BME280;3803;51.666;7.630;2024-03-22T01:19:20;101456.47;;;14.48;52.57
7524;BME280;3803;51.666;7.630;2024-03-22T01:19:41;101456.47;;;14.48;52.70
7524;BME280;3803;51.666;7.630;2024-03-22T01:20:02;101459.00;;;14.45;52.47
7524;BME280;3803;51.666;7.630;2024-03-22T01:20:23;101448.44;;;14.42;52.81
7524;BME280;3803;51.666;7.630;2024-03-22T01:20:43;101460.81;;;14.48;52.73
7524;BME280;3803;51.666;7.630;2024-03-22T01:21:04;101450.25;;;14.45;52.71
7524;BME280;3803;51.666;7.630;2024-03-22T01:21:25;101445.78;;;14.41;52.53
7524;BME280;3803;51.666;7.630;2024-03-22T01:21:46;101445.91;;;14.47;52.63
7524;BME280;3803;51.666;7.630;2024-03-22T01:22:06;101447.53;;;14.42;52.38
7524;BME280;3803;51.666;7.630;2024-03-22T01:22:27;101448.50;;;14.45;52.67
7524;BME280;3803;51.666;7.630;2024-03-22T01:22:48;101453.00;;;14.49;52.60
7524;BME280;3803;51.666;7.630;2024-03-22T01:23:09;101453.84;;;14.48;52.38
7524;BME280;3803;51.666;7.630;2024-03-22T01:23:30;101460.91;;;14.52;52.71
7524;BME280;3803;51.666;7.630;2024-03-22T01:23:52;101454.66;;;14.46;52.49
7524;BME280;3803;51.666;7.630;2024-03-22T01:24:12;101449.47;;;14.49;52.51
7524;BME280;3803;51.666;7.630;2024-03-22T01:24:33;101451.25;;;14.50;52.69
7524;BME280;3803;51.666;7.630;2024-03-22T01:24:54;101447.59;;;14.43;52.51
7524;BME280;3803;51.666;7.630;2024-03-22T01:25:15;101446.72;;;14.44;52.52
7524;BME280;3803;51.666;7.630;2024-03-22T01:25:35;101454.66;;;14.46;52.73
7524;BME280;3803;51.666;7.630;2024-03-22T01:25:56;101449.34;;;14.44;52.63
7524;BME280;3803;51.666;7.630;2024-03-22T01:26:17;101449.34;;;14.44;52.61
7524;BME280;3803;51.666;7.630;2024-03-22T01:26:38;101445.06;;;14.46;52.58
7524;BME280;3803;51.666;7.630;2024-03-22T01:26:58;101448.59;;;14.48;52.52
7524;BME280;3803;51.666;7.630;2024-03-22T01:27:19;101445.06;;;14.48;52.59
7524;BME280;3803;51.666;7.630;2024-03-22T01:27:40;101446.94;;;14.53;52.72
7524;BME280;3803;51.666;7.630;2024-03-22T01:28:00;101438.13;;;14.50;52.39
7524;BME280;3803;51.666;7.630;2024-03-22T01:28:21;101440.78;;;14.51;52.72
7524;BME280;3803;51.666;7.630;2024-03-22T01:28:41;101438.09;;;14.48;52.40
7524;BME280;3803;51.666;7.630;2024-03-22T01:29:02;101447.69;;;14.48;52.48
7524;BME280;3803;51.666;7.630;2024-03-22T01:29:22;101437.22;;;14.49;52.52
7524;BME280;3803;51.666;7.630;2024-03-22T01:29:43;101447.78;;;14.52;52.57
7524;BME280;3803;51.666;7.630;2024-03-22T01:30:04;101439.84;;;14.49;52.35
7524;BME280;3803;51.666;7.630;2024-03-22T01:30:25;101432.97;;;14.55;52.48
7524;BME280;3803;51.666;7.630;2024-03-22T01:30:49;101441.72;;;14.55;52.48
7524;BME280;3803;51.666;7.630;2024-03-22T01:31:09;101441.72;;;14.55;52.49
7524;BME280;3803;51.666;7.630;2024-03-22T01:31:30;101433.75;;;14.50;52.34
7524;BME280;3803;51.666;7.630;2024-03-22T01:31:50;101434.66;;;14.52;52.20
7524;BME280;3803;51.666;7.630;2024-03-22T01:32:11;101431.91;;;14.46;52.30
7524;BME280;3803;51.666;7.630;2024-03-22T01:32:32;101433.00;;;14.56;52.30
7524;BME280;3803;51.666;7.630;2024-03-22T01:32:52;101430.31;;;14.53;52.18
7524;BME280;3803;51.666;7.630;2024-03-22T01:33:13;101432.03;;;14.52;52.37
7524;BME280;3803;51.666;7.630;2024-03-22T01:33:33;101433.78;;;14.52;52.53
7524;BME280;3803;51.666;7.630;2024-03-22T01:33:54;101426.81;;;14.54;52.30
7524;BME280;3803;51.666;7.630;2024-03-22T01:34:14;101426.78;;;14.52;52.36
7524;BME280;3803;51.666;7.630;2024-03-22T01:34:35;101419.69;;;14.48;52.30
7524;BME280;3803;51.666;7.630;2024-03-22T01:34:55;101424.09;;;14.49;52.49
7524;BME280;3803;51.666;7.630;2024-03-22T01:35:16;101426.72;;;14.49;52.49
7524;BME280;3803;51.666;7.630;2024-03-22T01:35:37;101411.72;;;14.44;52.52
7524;BME280;3803;51.666;7.630;2024-03-22T01:35:57;101421.53;;;14.51;52.42
7524;BME280;3803;51.666;7.630;2024-03-22T01:36:18;101415.31;;;14.47;52.61
7524;BME280;3803;51.666;7.630;2024-03-22T01:36:38;101420.47;;;14.44;52.77
7524;BME280;3803;51.666;7.630;2024-03-22T01:36:59;101411.63;;;14.39;52.68
7524;BME280;3803;51.666;7.630;2024-03-22T01:37:20;101431.03;;;14.46;52.86
7524;BME280;3803;51.666;7.630;2024-03-22T01:37:41;101420.47;;;14.44;52.34
7524;BME280;3803;51.666;7.630;2024-03-22T01:38:01;101418.78;;;14.46;52.65
7524;BME280;3803;51.666;7.630;2024-03-22T01:38:22;101414.34;;;14.44;52.36
7524;BME280;3803;51.666;7.630;2024-03-22T01:38:45;101420.56;;;14.47;52.72
7524;BME280;3803;51.666;7.630;2024-03-22T01:39:06;101417.75;;;14.39;52.68
7524;BME280;3803;51.666;7.630;2024-03-22T01:39:26;101423.91;;;14.40;52.65
7524;BME280;3803;51.666;7.630;2024-03-22T01:39:47;101418.69;;;14.43;52.70
7524;BME280;3803;51.666;7.630;2024-03-22T01:40:08;101417.72;;;14.38;52.62
7524;BME280;3803;51.666;7.630;2024-03-22T01:40:29;101416.13;;;14.45;52.75
7524;BME280;3803;51.666;7.630;2024-03-22T01:40:49;101418.66;;;14.40;52.93
7524;BME280;3803;51.666;7.630;2024-03-22T01:41:10;101423.03;;;14.41;52.75
7524;BME280;3803;51.666;7.630;2024-03-22T01:41:30;101429.16;;;14.40;52.89
7524;BME280;3803;51.666;7.630;2024-03-22T01:41:51;101422.13;;;14.41;52.72
7524;BME280;3803;51.666;7.630;2024-03-22T01:42:12;101415.09;;;14.38;52.96
7524;BME280;3803;51.666;7.630;2024-03-22T01:42:32;101418.66;;;14.40;52.60
7524;BME280;3803;51.666;7.630;2024-03-22T01:42:55;101422.13;;;14.41;52.90
7524;BME280;3803;51.666;7.630;2024-03-22T01:43:16;101423.03;;;14.41;52.76
7524;BME280;3803;51.666;7.630;2024-03-22T01:43:36;101408.00;;;14.34;52.84
7524;BME280;3803;51.666;7.630;2024-03-22T01:43:58;101426.53;;;14.40;52.99
7524;BME280;3803;51.666;7.630;2024-03-22T01:44:18;101413.31;;;14.37;52.82
7524;BME280;3803;51.666;7.630;2024-03-22T01:44:39;101414.25;;;14.39;52.99
7524;BME280;3803;51.666;7.630;2024-03-22T01:45:00;101411.59;;;14.37;52.94
7524;BME280;3803;51.666;7.630;2024-03-22T01:45:21;101407.16;;;14.35;53.08
7524;BME280;3803;51.666;7.630;2024-03-22T01:45:43;101404.53;;;14.35;52.86
7524;BME280;3803;51.666;7.630;2024-03-22T01:46:04;101398.31;;;14.31;52.90
7524;BME280;3803;51.666;7.630;2024-03-22T01:46:25;101406.47;;;14.45;53.01
7524;BME280;3803;51.666;7.630;2024-03-22T01:46:47;101403.84;;;14.45;52.62
7524;BME280;3803;51.666;7.630;2024-03-22T01:47:08;101406.47;;;14.45;52.51
7524;BME280;3803;51.666;7.630;2024-03-22T01:47:29;101412.63;;;14.46;52.81
7524;BME280;3803;51.666;7.630;2024-03-22T01:47:53;101405.63;;;14.45;52.67
7524;BME280;3803;51.666;7.630;2024-03-22T01:48:14;101403.81;;;14.42;52.88
7524;BME280;3803;51.666;7.630;2024-03-22T01:48:36;101403.75;;;14.41;52.98
7524;BME280;3803;51.666;7.630;2024-03-22T01:48:57;101407.25;;;14.39;52.83
7524;BME280;3803;51.666;7.630;2024-03-22T01:49:17;101396.78;;;14.41;52.81
7524;BME280;3803;51.666;7.630;2024-03-22T01:49:38;101402.03;;;14.41;52.87
7524;BME280;3803;51.666;7.630;2024-03-22T01:49:59;101397.59;;;14.38;52.75
7524;BME280;3803;51.666;7.630;2024-03-22T01:50:21;101399.34;;;14.38;52.63
7524;BME280;3803;51.666;7.630;2024-03-22T01:51:02;101395.72;;;14.33;52.80
7524;BME280;3803;51.666;7.630;2024-03-22T01:51:24;101405.53;;;14.40;53.00
7524;BME280;3803;51.666;7.630;2024-03-22T01:51:45;101395.78;;;14.36;52.66
7524;BME280;3803;51.666;7.630;2024-03-22T01:52:05;101402.91;;;14.40;52.91
7524;BME280;3803;51.666;7.630;2024-03-22T01:52:26;101400.16;;;14.35;53.17
7524;BME280;3803;51.666;7.630;2024-03-22T01:52:47;101395.78;;;14.34;52.86
7524;BME280;3803;51.666;7.630;2024-03-22T01:53:08;101390.47;;;14.33;53.21
7524;BME280;3803;51.666;7.630;2024-03-22T01:53:29;101394.88;;;14.34;53.07